Naha2 — JD3425 — position and weather

sailwx.info

Track history (hours):
 
Tides and Currents Weather Stations Pressure Air Temp Water Temp Dewpoint Dewpoint Depression Visibility Wind Speed Wind Dir Waves Ship Positions

Naha2

Last reported at 2018-Feb-19 07:29 UTC. Time now 2018-Feb-19 07:59 UTC.
Position N 33°40' E 130°25'.

Length 99 m; draft 5.3 m.

Type: Cargo ship. MMSI: 431004022.

Date/timePositionNaut miles runAvg speedWind from/ knotsBaromVisibWave heightAir tempDewpointWater temp
2018-Feb-19 07:29N 33°40' E 130°25'0 0.0
2018-Feb-19 06:59N 33°40' E 130°25'0 0.0
2018-Feb-19 06:26N 33°40' E 130°25'0 0.0
2018-Feb-19 05:59N 33°40' E 130°25'0 0.0
2018-Feb-19 05:29N 33°40' E 130°25'0 0.0
2018-Feb-19 04:59N 33°40' E 130°25'0 0.0
2018-Feb-19 04:29N 33°40' E 130°25'0 0.0
2018-Feb-19 03:59N 33°40' E 130°25'0 0.0
2018-Feb-19 03:29N 33°40' E 130°25'0 0.0
2018-Feb-19 02:59N 33°40' E 130°25'0 0.0
2018-Feb-19 02:29N 33°40' E 130°25'0 0.0
2018-Feb-19 01:59N 33°40' E 130°25'0 0.0
2018-Feb-19 01:29N 33°40' E 130°25'0 0.0
2018-Feb-19 00:56N 33°40' E 130°25'0 0.0
2018-Feb-19 00:29N 33°40' E 130°25'0 0.0
2018-Feb-18 23:59N 33°40' E 130°25'0 1.0
2018-Feb-18 23:30N 33°39' E 130°24'5 9.5
2018-Feb-18 23:00N 33°39' E 130°19'2 4.2
2018-Feb-18 22:28N 33°39' E 130°16'0 0.0
2018-Feb-18 21:51N 33°39' E 130°16'0 0.1
2018-Feb-18 21:28N 33°39' E 130°16'0 0.0
2018-Feb-18 20:58N 33°39' E 130°16'0 0.0
2018-Feb-18 20:28N 33°39' E 130°16'0 0.0
2018-Feb-18 19:57N 33°39' E 130°16'0 0.1
2018-Feb-18 19:31N 33°39' E 130°16'0 0.0
2018-Feb-18 19:00N 33°39' E 130°16'0 0.0
2018-Feb-18 18:31N 33°39' E 130°16'0 0.1
2018-Feb-18 18:00N 33°39' E 130°16'0 0.0
2018-Feb-18 17:27N 33°39' E 130°16'0 0.0
2018-Feb-18 16:57N 33°39' E 130°16'0 0.0
2018-Feb-18 16:30N 33°39' E 130°16'4 7.8
2018-Feb-18 16:00N 33°42' E 130°15'815.5
2018-Feb-18 15:30N 33°42' E 130°05'816.1
2018-Feb-18 14:59N 33°39' E 129°56'816.3
2018-Feb-18 14:30N 33°37' E 129°47'  
2018-Feb-15 12:56N 33°40' E 129°47'715.5
2018-Feb-15 12:30N 33°39' E 129°54'815.7
2018-Feb-15 11:59N 33°41' E 130°04'715.4
2018-Feb-15 11:30N 33°43' E 130°13'714.4
2018-Feb-15 11:00N 33°38' E 130°20'4 8.7
2018-Feb-15 10:30N 33°40' E 130°25'0 0.3
2018-Feb-15 10:00N 33°40' E 130°25'0 0.0
2018-Feb-15 09:30N 33°40' E 130°25'0 0.0
2018-Feb-15 08:57N 33°40' E 130°25'0 0.0
2018-Feb-15 08:30N 33°40' E 130°25'0 0.0
2018-Feb-15 08:00N 33°40' E 130°25'0 0.0
2018-Feb-15 07:30N 33°40' E 130°25'0 0.0
2018-Feb-15 07:00N 33°40' E 130°25'0 0.0
2018-Feb-15 06:24N 33°40' E 130°25'0 0.0
2018-Feb-15 06:00N 33°40' E 130°25'0 0.0
2018-Feb-15 05:30N 33°40' E 130°25'0 0.0
2018-Feb-15 05:00N 33°40' E 130°25'0 0.0
2018-Feb-15 04:30N 33°40' E 130°25'0 0.0
2018-Feb-15 04:00N 33°40' E 130°25'0 0.0
2018-Feb-15 03:30N 33°40' E 130°25'0 0.0
2018-Feb-15 03:00N 33°40' E 130°25'0 0.0
2018-Feb-15 02:30N 33°40' E 130°25'0 0.0
2018-Feb-15 02:00N 33°40' E 130°25'0 0.0
2018-Feb-15 01:30N 33°40' E 130°25'0 0.0
2018-Feb-15 01:00N 33°40' E 130°25'0 0.0
2018-Feb-15 00:30N 33°40' E 130°25'0 0.0
2018-Feb-15 00:00N 33°40' E 130°25'0 0.0
2018-Feb-14 23:30N 33°40' E 130°25'0 0.0
2018-Feb-14 23:00N 33°40' E 130°25'0 0.0
2018-Feb-14 22:30N 33°40' E 130°25'0 0.0
2018-Feb-14 22:00N 33°40' E 130°25'0 0.0
2018-Feb-14 21:30N 33°40' E 130°25'0 0.0
2018-Feb-14 21:00N 33°40' E 130°25'0 0.0
2018-Feb-14 20:30N 33°40' E 130°25'0 0.0
2018-Feb-14 20:00N 33°40' E 130°25'0 0.0
2018-Feb-14 19:30N 33°40' E 130°25'0 0.0
2018-Feb-14 19:00N 33°40' E 130°25'0 0.0
2018-Feb-14 18:30N 33°40' E 130°25'0 0.0
2018-Feb-14 18:00N 33°40' E 130°25'0 0.0
2018-Feb-14 17:30N 33°40' E 130°25'0 0.0
2018-Feb-14 17:00N 33°40' E 130°25'0 0.0
2018-Feb-14 16:30N 33°40' E 130°25'0 0.0
2018-Feb-14 16:00N 33°40' E 130°25'0 0.0
2018-Feb-14 15:30N 33°40' E 130°25'0 0.0
2018-Feb-14 15:00N 33°40' E 130°25'0 0.0
2018-Feb-14 14:30N 33°40' E 130°25'0 0.0
2018-Feb-14 14:00N 33°40' E 130°25'0 0.0
2018-Feb-14 13:30N 33°40' E 130°25'0 0.0
2018-Feb-14 13:00N 33°40' E 130°25'0 0.0
2018-Feb-14 12:30N 33°40' E 130°25'0 0.0
2018-Feb-14 12:00N 33°40' E 130°25'0 0.0
2018-Feb-14 11:30N 33°40' E 130°25'0 0.0
2018-Feb-14 11:00N 33°40' E 130°25'0 0.0
2018-Feb-14 10:30N 33°40' E 130°25'0 0.0
2018-Feb-14 10:00N 33°40' E 130°25'0 0.0
2018-Feb-14 09:30N 33°40' E 130°25'0 0.0
2018-Feb-14 09:00N 33°40' E 130°25'0 0.0
2018-Feb-14 08:30N 33°40' E 130°25'0 0.0
2018-Feb-14 08:00N 33°40' E 130°25'0 0.0
2018-Feb-14 07:30N 33°40' E 130°25'0 0.0
2018-Feb-14 07:00N 33°40' E 130°25'0 0.0
2018-Feb-14 06:30N 33°40' E 130°25'0 0.0
2018-Feb-14 06:00N 33°40' E 130°25'0 0.0
2018-Feb-14 05:30N 33°40' E 130°25'0 0.0
2018-Feb-14 05:00N 33°40' E 130°25'0 0.0
2018-Feb-14 04:30N 33°40' E 130°25'0 0.0
2018-Feb-14 04:00N 33°40' E 130°25'0 0.0
2018-Feb-14 03:30N 33°40' E 130°25'0 0.0
2018-Feb-14 03:00N 33°40' E 130°25'0 0.0
2018-Feb-14 02:30N 33°40' E 130°25'0 0.0
2018-Feb-14 01:59N 33°40' E 130°25'0 0.0
2018-Feb-14 01:30N 33°40' E 130°25'0 0.0
2018-Feb-14 00:59N 33°40' E 130°25'0 0.0
2018-Feb-14 00:30N 33°40' E 130°25'0 0.0
2018-Feb-14 00:00N 33°40' E 130°25'1 1.0
2018-Feb-13 23:30N 33°39' E 130°24'5 9.2
2018-Feb-13 23:00N 33°39' E 130°19'510.4
2018-Feb-13 22:30N 33°42' E 130°14'611.6
2018-Feb-13 22:00N 33°43' E 130°07'713.8
2018-Feb-13 21:30N 33°40' E 129°60'815.2
2018-Feb-13 21:00N 33°38' E 129°51'  
2018-Feb-10 13:45N 33°37' E 129°46'416.3
2018-Feb-10 13:29N 33°38' E 129°51'816.3
2018-Feb-10 12:58N 33°40' E 130°01'816.4
2018-Feb-10 12:31N 33°43' E 130°09'714.7
2018-Feb-10 12:00N 33°40' E 130°17'611.7
2018-Feb-10 11:31N 33°39' E 130°24'1 1.6
2018-Feb-10 10:59N 33°40' E 130°25'0 0.0
2018-Feb-10 10:29N 33°40' E 130°25'0 0.0
2018-Feb-10 09:58N 33°40' E 130°25'0 0.0
2018-Feb-10 09:25N 33°40' E 130°25'0 0.0
2018-Feb-10 08:59N 33°40' E 130°25'0 0.0
2018-Feb-10 08:28N 33°40' E 130°25'0 0.0
2018-Feb-10 07:55N 33°40' E 130°25'0 0.0
2018-Feb-10 07:29N 33°40' E 130°25'0 0.0
2018-Feb-10 06:58N 33°40' E 130°25'0 0.0
2018-Feb-10 06:28N 33°40' E 130°25'0 0.0
2018-Feb-10 05:58N 33°40' E 130°25'0 0.0
2018-Feb-10 05:28N 33°40' E 130°25'0 0.0
2018-Feb-10 04:58N 33°40' E 130°25'0 0.0
2018-Feb-10 04:28N 33°40' E 130°25'0 0.0
2018-Feb-10 03:58N 33°40' E 130°25'0 0.0
2018-Feb-10 03:28N 33°40' E 130°25'0 0.0
2018-Feb-10 02:58N 33°40' E 130°25'0 0.0
2018-Feb-10 02:28N 33°40' E 130°25'0 0.0
2018-Feb-10 01:58N 33°40' E 130°25'0 0.0
2018-Feb-10 01:28N 33°40' E 130°25'0 0.0
2018-Feb-10 00:58N 33°40' E 130°25'0 0.0
2018-Feb-10 00:28N 33°40' E 130°25'0 0.0
2018-Feb-09 23:55N 33°40' E 130°25'0 0.0
2018-Feb-09 23:29N 33°40' E 130°25'0 0.0
2018-Feb-09 22:59N 33°40' E 130°25'0 0.8
2018-Feb-09 22:46N 33°40' E 130°25'1 4.3
2018-Feb-09 22:30N 33°39' E 130°23'510.2
2018-Feb-09 22:01N 33°39' E 130°17'2 0.7
2018-Feb-09 19:30N 33°39' E 130°15'1 0.3
2018-Feb-09 15:00N 33°40' E 130°16'  
Track history (hours):
 
Tides and Currents Weather Stations Pressure Air Temp Water Temp Dewpoint Dewpoint Depression Visibility Wind Speed Wind Dir Waves Ship Positions

Naha2

Last reported at 2018-Feb-19 07:29 UTC. Time now 2018-Feb-19 07:59 UTC.
Position N 33°40' E 130°25'.

Length 99 m; draft 5.3 m.

Type: Cargo ship. MMSI: 431004022.

Date/timePositionNaut miles runAvg speedWind from/ knotsBaromVisibWave heightAir tempDewpointWater temp
2018-Feb-19 07:29N 33°40' E 130°25'0 0.0
2018-Feb-19 06:59N 33°40' E 130°25'0 0.0
2018-Feb-19 06:26N 33°40' E 130°25'0 0.0
2018-Feb-19 05:59N 33°40' E 130°25'0 0.0
2018-Feb-19 05:29N 33°40' E 130°25'0 0.0
2018-Feb-19 04:59N 33°40' E 130°25'0 0.0
2018-Feb-19 04:29N 33°40' E 130°25'0 0.0
2018-Feb-19 03:59N 33°40' E 130°25'0 0.0
2018-Feb-19 03:29N 33°40' E 130°25'0 0.0
2018-Feb-19 02:59N 33°40' E 130°25'0 0.0
2018-Feb-19 02:29N 33°40' E 130°25'0 0.0
2018-Feb-19 01:59N 33°40' E 130°25'0 0.0
2018-Feb-19 01:29N 33°40' E 130°25'0 0.0
2018-Feb-19 00:56N 33°40' E 130°25'0 0.0
2018-Feb-19 00:29N 33°40' E 130°25'0 0.0
2018-Feb-18 23:59N 33°40' E 130°25'0 1.0
2018-Feb-18 23:30N 33°39' E 130°24'5 9.5
2018-Feb-18 23:00N 33°39' E 130°19'2 4.2
2018-Feb-18 22:28N 33°39' E 130°16'0 0.0
2018-Feb-18 21:51N 33°39' E 130°16'0 0.1
2018-Feb-18 21:28N 33°39' E 130°16'0 0.0
2018-Feb-18 20:58N 33°39' E 130°16'0 0.0
2018-Feb-18 20:28N 33°39' E 130°16'0 0.0
2018-Feb-18 19:57N 33°39' E 130°16'0 0.1
2018-Feb-18 19:31N 33°39' E 130°16'0 0.0
2018-Feb-18 19:00N 33°39' E 130°16'0 0.0
2018-Feb-18 18:31N 33°39' E 130°16'0 0.1
2018-Feb-18 18:00N 33°39' E 130°16'0 0.0
2018-Feb-18 17:27N 33°39' E 130°16'0 0.0
2018-Feb-18 16:57N 33°39' E 130°16'0 0.0
2018-Feb-18 16:30N 33°39' E 130°16'4 7.8
2018-Feb-18 16:00N 33°42' E 130°15'815.5
2018-Feb-18 15:30N 33°42' E 130°05'816.1
2018-Feb-18 14:59N 33°39' E 129°56'816.3
2018-Feb-18 14:30N 33°37' E 129°47'  
2018-Feb-15 12:56N 33°40' E 129°47'715.5
2018-Feb-15 12:30N 33°39' E 129°54'815.7
2018-Feb-15 11:59N 33°41' E 130°04'715.4
2018-Feb-15 11:30N 33°43' E 130°13'714.4
2018-Feb-15 11:00N 33°38' E 130°20'4 8.7
2018-Feb-15 10:30N 33°40' E 130°25'0 0.3
2018-Feb-15 10:00N 33°40' E 130°25'0 0.0
2018-Feb-15 09:30N 33°40' E 130°25'0 0.0
2018-Feb-15 08:57N 33°40' E 130°25'0 0.0
2018-Feb-15 08:30N 33°40' E 130°25'0 0.0
2018-Feb-15 08:00N 33°40' E 130°25'0 0.0
2018-Feb-15 07:30N 33°40' E 130°25'0 0.0
2018-Feb-15 07:00N 33°40' E 130°25'0 0.0
2018-Feb-15 06:24N 33°40' E 130°25'0 0.0
2018-Feb-15 06:00N 33°40' E 130°25'0 0.0
2018-Feb-15 05:30N 33°40' E 130°25'0 0.0
2018-Feb-15 05:00N 33°40' E 130°25'0 0.0
2018-Feb-15 04:30N 33°40' E 130°25'0 0.0
2018-Feb-15 04:00N 33°40' E 130°25'0 0.0
2018-Feb-15 03:30N 33°40' E 130°25'0 0.0
2018-Feb-15 03:00N 33°40' E 130°25'0 0.0
2018-Feb-15 02:30N 33°40' E 130°25'0 0.0
2018-Feb-15 02:00N 33°40' E 130°25'0 0.0
2018-Feb-15 01:30N 33°40' E 130°25'0 0.0
2018-Feb-15 01:00N 33°40' E 130°25'0 0.0
2018-Feb-15 00:30N 33°40' E 130°25'0 0.0
2018-Feb-15 00:00N 33°40' E 130°25'0 0.0
2018-Feb-14 23:30N 33°40' E 130°25'0 0.0
2018-Feb-14 23:00N 33°40' E 130°25'0 0.0
2018-Feb-14 22:30N 33°40' E 130°25'0 0.0
2018-Feb-14 22:00N 33°40' E 130°25'0 0.0
2018-Feb-14 21:30N 33°40' E 130°25'0 0.0
2018-Feb-14 21:00N 33°40' E 130°25'0 0.0
2018-Feb-14 20:30N 33°40' E 130°25'0 0.0
2018-Feb-14 20:00N 33°40' E 130°25'0 0.0
2018-Feb-14 19:30N 33°40' E 130°25'0 0.0
2018-Feb-14 19:00N 33°40' E 130°25'0 0.0
2018-Feb-14 18:30N 33°40' E 130°25'0 0.0
2018-Feb-14 18:00N 33°40' E 130°25'0 0.0
2018-Feb-14 17:30N 33°40' E 130°25'0 0.0
2018-Feb-14 17:00N 33°40' E 130°25'0 0.0
2018-Feb-14 16:30N 33°40' E 130°25'0 0.0
2018-Feb-14 16:00N 33°40' E 130°25'0 0.0
2018-Feb-14 15:30N 33°40' E 130°25'0 0.0
2018-Feb-14 15:00N 33°40' E 130°25'0 0.0
2018-Feb-14 14:30N 33°40' E 130°25'0 0.0
2018-Feb-14 14:00N 33°40' E 130°25'0 0.0
2018-Feb-14 13:30N 33°40' E 130°25'0 0.0
2018-Feb-14 13:00N 33°40' E 130°25'0 0.0
2018-Feb-14 12:30N 33°40' E 130°25'0 0.0
2018-Feb-14 12:00N 33°40' E 130°25'0 0.0
2018-Feb-14 11:30N 33°40' E 130°25'0 0.0
2018-Feb-14 11:00N 33°40' E 130°25'0 0.0
2018-Feb-14 10:30N 33°40' E 130°25'0 0.0
2018-Feb-14 10:00N 33°40' E 130°25'0 0.0
2018-Feb-14 09:30N 33°40' E 130°25'0 0.0
2018-Feb-14 09:00N 33°40' E 130°25'0 0.0
2018-Feb-14 08:30N 33°40' E 130°25'0 0.0
2018-Feb-14 08:00N 33°40' E 130°25'0 0.0
2018-Feb-14 07:30N 33°40' E 130°25'0 0.0
2018-Feb-14 07:00N 33°40' E 130°25'0 0.0
2018-Feb-14 06:30N 33°40' E 130°25'0 0.0
2018-Feb-14 06:00N 33°40' E 130°25'0 0.0
2018-Feb-14 05:30N 33°40' E 130°25'0 0.0
2018-Feb-14 05:00N 33°40' E 130°25'0 0.0
2018-Feb-14 04:30N 33°40' E 130°25'0 0.0
2018-Feb-14 04:00N 33°40' E 130°25'0 0.0
2018-Feb-14 03:30N 33°40' E 130°25'0 0.0
2018-Feb-14 03:00N 33°40' E 130°25'0 0.0
2018-Feb-14 02:30N 33°40' E 130°25'0 0.0
2018-Feb-14 01:59N 33°40' E 130°25'0 0.0
2018-Feb-14 01:30N 33°40' E 130°25'0 0.0
2018-Feb-14 00:59N 33°40' E 130°25'0 0.0
2018-Feb-14 00:30N 33°40' E 130°25'0 0.0
2018-Feb-14 00:00N 33°40' E 130°25'1 1.0
2018-Feb-13 23:30N 33°39' E 130°24'5 9.2
2018-Feb-13 23:00N 33°39' E 130°19'510.4
2018-Feb-13 22:30N 33°42' E 130°14'611.6
2018-Feb-13 22:00N 33°43' E 130°07'713.8
2018-Feb-13 21:30N 33°40' E 129°60'815.2
2018-Feb-13 21:00N 33°38' E 129°51'  
2018-Feb-10 13:45N 33°37' E 129°46'416.3
2018-Feb-10 13:29N 33°38' E 129°51'816.3
2018-Feb-10 12:58N 33°40' E 130°01'816.4
2018-Feb-10 12:31N 33°43' E 130°09'714.7
2018-Feb-10 12:00N 33°40' E 130°17'611.7
2018-Feb-10 11:31N 33°39' E 130°24'1 1.6
2018-Feb-10 10:59N 33°40' E 130°25'0 0.0
2018-Feb-10 10:29N 33°40' E 130°25'0 0.0
2018-Feb-10 09:58N 33°40' E 130°25'0 0.0
2018-Feb-10 09:25N 33°40' E 130°25'0 0.0
2018-Feb-10 08:59N 33°40' E 130°25'0 0.0
2018-Feb-10 08:28N 33°40' E 130°25'0 0.0
2018-Feb-10 07:55N 33°40' E 130°25'0 0.0
2018-Feb-10 07:29N 33°40' E 130°25'0 0.0
2018-Feb-10 06:58N 33°40' E 130°25'0 0.0
2018-Feb-10 06:28N 33°40' E 130°25'0 0.0
2018-Feb-10 05:58N 33°40' E 130°25'0 0.0
2018-Feb-10 05:28N 33°40' E 130°25'0 0.0
2018-Feb-10 04:58N 33°40' E 130°25'0 0.0
2018-Feb-10 04:28N 33°40' E 130°25'0 0.0
2018-Feb-10 03:58N 33°40' E 130°25'0 0.0
2018-Feb-10 03:28N 33°40' E 130°25'0 0.0
2018-Feb-10 02:58N 33°40' E 130°25'0 0.0
2018-Feb-10 02:28N 33°40' E 130°25'0 0.0
2018-Feb-10 01:58N 33°40' E 130°25'0 0.0
2018-Feb-10 01:28N 33°40' E 130°25'0 0.0
2018-Feb-10 00:58N 33°40' E 130°25'0 0.0
2018-Feb-10 00:28N 33°40' E 130°25'0 0.0
2018-Feb-09 23:55N 33°40' E 130°25'0 0.0
2018-Feb-09 23:29N 33°40' E 130°25'0 0.0
2018-Feb-09 22:59N 33°40' E 130°25'0 0.8
2018-Feb-09 22:46N 33°40' E 130°25'1 4.3
2018-Feb-09 22:30N 33°39' E 130°23'510.2
2018-Feb-09 22:01N 33°39' E 130°17'2 0.7
2018-Feb-09 19:30N 33°39' E 130°15'1 0.3
2018-Feb-09 15:00N 33°40' E 130°16'  

Dump ship's entire track history